Time;durP1;ratioP1;P1;durP2;ratioP2;P2;SDS_P1;SDS_P2;PMS_P1;PMS_P2;Temp;Humidity;BMP_temperature;BMP_pressure;BME280_temperature;BME280_humidity;BME280_pressure;Samples;Min_cycle;Max_cycle;Signal;HPM_P1;HPM_P2
2022/12/11 00:01:51;;;;;;;0.97;0.97;;;;;;;;;;6209565;23;20151;-75
2022/12/11 00:04:17;;;;;;;0.90;0.90;;;;;;;;;;6209355;22;20179;-75
2022/12/11 00:06:43;;;;;;;0.90;0.90;;;;;;;;;;6209989;23;20587;-75
2022/12/11 00:09:09;;;;;;;0.90;0.90;;;;;;;;;;6209886;23;20167;-75
2022/12/11 00:11:35;;;;;;;0.93;0.93;;;;;;;;;;6209990;23;20151;-76
2022/12/11 00:14:01;;;;;;;0.87;0.87;;;;;;;;;;6208864;22;20251;-75
2022/12/11 00:16:27;;;;;;;0.90;0.90;;;;;;;;;;6209988;23;20215;-75
2022/12/11 00:18:53;;;;;;;0.90;0.90;;;;;;;;;;6209913;23;20462;-75
2022/12/11 00:21:19;;;;;;;0.93;0.93;;;;;;;;;;6210070;23;20144;-75
2022/12/11 00:23:45;;;;;;;1.00;1.00;;;;;;;;;;6209342;22;20175;-74
2022/12/11 00:26:14;;;;;;;0.97;0.97;;;;;;;;;;6209998;23;20640;-75
2022/12/11 00:28:41;;;;;;;0.90;0.90;;;;;;;;;;6210082;23;20189;-75
2022/12/11 00:31:09;;;;;;;0.93;0.93;;;;;;;;;;6209980;23;20198;-75
2022/12/11 00:33:35;;;;;;;1.00;1.00;;;;;;;;;;6209171;22;20191;-75
2022/12/11 00:36:01;;;;;;;0.90;0.90;;;;;;;;;;6209844;23;20207;-75
2022/12/11 00:38:27;;;;;;;0.90;0.90;;;;;;;;;;6209887;23;20673;-75
2022/12/11 00:40:58;;;;;;;0.90;0.90;;;;;;;;;;6210584;23;20230;-75
2022/12/11 00:43:24;;;;;;;0.90;0.90;;;;;;;;;;6209248;22;20167;-76
2022/12/11 00:45:50;;;;;;;0.90;0.90;;;;;;;;;;6209722;23;20542;-75
2022/12/11 00:48:16;;;;;;;1.00;1.00;;;;;;;;;;6209775;23;20179;-76
2022/12/11 00:50:41;;;;;;;0.93;0.93;;;;;;;;;;6209834;23;20509;-76
2022/12/11 00:53:07;;;;;;;0.90;0.90;;;;;;;;;;6208523;22;20191;-75
2022/12/11 00:55:38;;;;;;;0.80;0.80;;;;;;;;;;6209673;23;20151;-75
2022/12/11 00:58:04;;;;;;;0.80;0.80;;;;;;;;;;6209286;23;20609;-75
2022/12/11 01:00:30;;;;;;;0.90;0.90;;;;;;;;;;6209729;23;20151;-75
2022/12/11 01:02:56;;;;;;;1.00;1.00;;;;;;;;;;6208974;22;20721;-75
2022/12/11 01:05:22;;;;;;;0.87;0.87;;;;;;;;;;6209765;23;20156;-75
2022/12/11 01:07:48;;;;;;;0.80;0.80;;;;;;;;;;6209227;23;20620;-75
2022/12/11 01:10:23;;;;;;;0.90;0.90;;;;;;;;;;6209190;23;20601;-75
2022/12/11 01:12:56;;;;;;;0.90;0.90;;;;;;;;;;6208795;22;20186;-75
2022/12/11 01:15:23;;;;;;;0.90;0.90;;;;;;;;;;6209227;23;20190;-76
2022/12/11 01:17:50;;;;;;;1.00;1.00;;;;;;;;;;6209512;23;20155;-75
2022/12/11 01:20:16;;;;;;;0.90;0.90;;;;;;;;;;6209617;23;20482;-76
2022/12/11 01:22:42;;;;;;;0.90;0.90;;;;;;;;;;6208447;22;20659;-76
2022/12/11 01:25:09;;;;;;;0.90;0.90;;;;;;;;;;6209398;23;20171;-76
2022/12/11 01:27:35;;;;;;;0.80;0.80;;;;;;;;;;6209215;23;20190;-76
2022/12/11 01:30:01;;;;;;;0.80;0.80;;;;;;;;;;6209015;23;20238;-76
2022/12/11 01:32:27;;;;;;;1.00;1.00;;;;;;;;;;6208929;22;20186;-76
2022/12/11 01:34:53;;;;;;;0.93;0.93;;;;;;;;;;6209670;23;20156;-75
2022/12/11 01:37:20;;;;;;;0.90;0.90;;;;;;;;;;6209322;23;20465;-76
2022/12/11 01:39:46;;;;;;;1.00;1.00;;;;;;;;;;6210378;23;20159;-75
2022/12/11 01:42:16;;;;;;;0.90;0.90;;;;;;;;;;6209929;23;20151;-76
2022/12/11 01:44:42;;;;;;;0.90;0.90;;;;;;;;;;6210647;23;20167;-76
2022/12/11 01:47:08;;;;;;;1.00;1.00;;;;;;;;;;6210687;23;20226;-76
2022/12/11 01:49:34;;;;;;;0.83;0.83;;;;;;;;;;6210505;23;20161;-76
2022/12/11 01:52:02;;;;;;;0.80;0.80;;;;;;;;;;6210032;23;20222;-75
2022/12/11 01:54:29;;;;;;;0.90;0.90;;;;;;;;;;6210170;22;20679;-76
2022/12/11 01:56:57;;;;;;;0.97;0.97;;;;;;;;;;6210605;23;20220;-75
2022/12/11 01:59:25;;;;;;;0.87;0.87;;;;;;;;;;6210604;23;20155;-76
2022/12/11 02:01:56;;;;;;;0.90;0.90;;;;;;;;;;6210254;23;20264;-75
2022/12/11 02:04:23;;;;;;;0.90;0.90;;;;;;;;;;6210300;22;20179;-75
2022/12/11 02:06:49;;;;;;;0.80;0.80;;;;;;;;;;6210072;23;20519;-75
2022/12/11 02:09:21;;;;;;;0.80;0.80;;;;;;;;;;6210162;23;20151;-75
2022/12/11 02:12:06;;;;;;;0.80;0.80;;;;;;;;;;6210431;23;20151;-76
2022/12/11 02:14:37;;;;;;;0.90;0.90;;;;;;;;;;6210026;22;20589;-75
2022/12/11 02:17:06;;;;;;;0.90;0.90;;;;;;;;;;6210528;23;20192;-76
2022/12/11 02:19:38;;;;;;;0.90;0.90;;;;;;;;;;6210559;23;20300;-76
2022/12/11 02:22:07;;;;;;;1.00;1.00;;;;;;;;;;6209758;23;20152;-76
2022/12/11 02:24:52;;;;;;;0.90;0.90;;;;;;;;;;6210408;22;20175;-75
2022/12/11 02:27:21;;;;;;;0.90;0.90;;;;;;;;;;6210589;23;20224;-75
2022/12/11 02:29:56;;;;;;;0.90;0.90;;;;;;;;;;6210052;23;20163;-76
2022/12/11 02:32:24;;;;;;;0.90;0.90;;;;;;;;;;6209185;22;20155;-76
2022/12/11 02:35:02;;;;;;;0.90;0.90;;;;;;;;;;6209887;23;20641;-76
2022/12/11 02:37:30;;;;;;;0.90;0.90;;;;;;;;;;6209872;23;20148;-76
2022/12/11 02:39:56;;;;;;;0.90;0.90;;;;;;;;;;6210507;23;20151;-75
2022/12/11 02:42:25;;;;;;;0.93;0.93;;;;;;;;;;6209407;22;20297;-76
2022/12/11 02:44:52;;;;;;;1.00;1.00;;;;;;;;;;6210386;23;20155;-76
2022/12/11 02:47:19;;;;;;;0.87;0.87;;;;;;;;;;6210308;23;20230;-75
2022/12/11 02:49:46;;;;;;;0.83;0.83;;;;;;;;;;6210183;23;20159;-75
2022/12/11 02:52:14;;;;;;;1.07;1.07;;;;;;;;;;6209618;23;20231;-76
2022/12/11 02:54:41;;;;;;;0.90;0.90;;;;;;;;;;6210814;22;20217;-76
2022/12/11 02:57:16;;;;;;;0.90;0.90;;;;;;;;;;6210389;23;20155;-75
2022/12/11 02:59:43;;;;;;;0.90;0.90;;;;;;;;;;6210030;23;20612;-75
2022/12/11 03:02:10;;;;;;;0.90;0.90;;;;;;;;;;6209797;23;20156;-76
2022/12/11 03:04:36;;;;;;;0.93;0.93;;;;;;;;;;6210282;22;20179;-76
2022/12/11 03:07:13;;;;;;;0.90;0.90;;;;;;;;;;6210475;23;20151;-76
2022/12/11 03:09:39;;;;;;;0.83;0.83;;;;;;;;;;6210309;23;20144;-75
2022/12/11 03:12:07;;;;;;;0.90;0.90;;;;;;;;;;6209706;23;20162;-76
2022/12/11 03:14:34;;;;;;;0.90;0.90;;;;;;;;;;6209798;22;20718;-75
2022/12/11 03:17:04;;;;;;;0.90;0.90;;;;;;;;;;6210265;23;20147;-75
2022/12/11 03:19:30;;;;;;;0.90;0.90;;;;;;;;;;6210345;23;20171;-75
2022/12/11 03:22:23;;;;;;;1.00;1.00;;;;;;;;;;6209956;23;20598;-75
2022/12/11 03:24:54;;;;;;;0.80;0.80;;;;;;;;;;6210614;23;20590;-75
2022/12/11 03:27:30;;;;;;;0.90;0.90;;;;;;;;;;6209612;23;20602;-75
2022/12/11 03:29:56;;;;;;;0.80;0.80;;;;;;;;;;6209885;23;20608;-75
2022/12/11 03:32:24;;;;;;;0.90;0.90;;;;;;;;;;6209413;22;20151;-74
2022/12/11 03:35:03;;;;;;;0.90;0.90;;;;;;;;;;6210228;23;20236;-74
2022/12/11 03:37:32;;;;;;;0.90;0.90;;;;;;;;;;6210189;23;20144;-75
2022/12/11 03:40:02;;;;;;;0.93;0.93;;;;;;;;;;6210166;23;20159;-75
2022/12/11 03:42:28;;;;;;;0.90;0.90;;;;;;;;;;6209380;22;20148;-75
2022/12/11 03:44:56;;;;;;;0.90;0.90;;;;;;;;;;6210093;23;20154;-75
2022/12/11 03:47:23;;;;;;;0.90;0.90;;;;;;;;;;6209778;23;20608;-76
2022/12/11 03:49:50;;;;;;;0.90;0.90;;;;;;;;;;6210038;23;20242;-75
2022/12/11 03:52:16;;;;;;;0.90;0.90;;;;;;;;;;6209491;23;20163;-75
2022/12/11 03:54:45;;;;;;;0.90;0.90;;;;;;;;;;6209857;22;20278;-74
2022/12/11 03:57:12;;;;;;;0.90;0.90;;;;;;;;;;6210046;23;20151;-75
2022/12/11 03:59:38;;;;;;;1.00;1.00;;;;;;;;;;6210011;23;20151;-75
2022/12/11 04:02:09;;;;;;;0.80;0.80;;;;;;;;;;6209227;23;20234;-74
2022/12/11 04:04:39;;;;;;;0.90;0.90;;;;;;;;;;6209613;22;20618;-74
2022/12/11 04:07:05;;;;;;;0.97;0.97;;;;;;;;;;6210009;23;20151;-75
2022/12/11 04:09:31;;;;;;;0.90;0.90;;;;;;;;;;6209961;23;20220;-74
2022/12/11 04:11:57;;;;;;;0.90;0.90;;;;;;;;;;6209401;23;20151;-76
2022/12/11 04:17:08;;;;;;;0.90;0.90;;;;;;;;;;6210192;23;20151;-75
2022/12/11 04:25:04;;;;;;;0.93;0.93;;;;;;;;;;6209666;23;20662;-75
2022/12/11 04:27:49;;;;;;;0.90;0.90;;;;;;;;;;6209355;23;20613;-75
2022/12/11 04:30:16;;;;;;;0.90;0.90;;;;;;;;;;6209788;23;20547;-75
2022/12/11 04:32:42;;;;;;;0.90;0.90;;;;;;;;;;6208669;22;20544;-75
2022/12/11 04:35:09;;;;;;;0.90;0.90;;;;;;;;;;6209806;23;20163;-75
2022/12/11 04:37:36;;;;;;;0.80;0.80;;;;;;;;;;6209832;23;20173;-75
2022/12/11 04:40:02;;;;;;;0.90;0.90;;;;;;;;;;6209869;23;20155;-75
2022/12/11 04:42:28;;;;;;;1.00;1.00;;;;;;;;;;6209225;22;20147;-75
2022/12/11 04:44:54;;;;;;;0.80;0.80;;;;;;;;;;6209960;23;20154;-74
2022/12/11 04:47:20;;;;;;;0.90;0.90;;;;;;;;;;6209445;23;20578;-75
2022/12/11 04:49:46;;;;;;;0.90;0.90;;;;;;;;;;6209636;23;20150;-75
2022/12/11 04:52:12;;;;;;;1.00;1.00;;;;;;;;;;6209066;23;20155;-74
2022/12/11 04:54:38;;;;;;;0.90;0.90;;;;;;;;;;6209585;22;20197;-75
2022/12/11 04:57:04;;;;;;;0.90;0.90;;;;;;;;;;6209906;23;20174;-75
2022/12/11 04:59:31;;;;;;;1.00;1.00;;;;;;;;;;6209802;23;20159;-75
2022/12/11 05:01:57;;;;;;;0.90;0.90;;;;;;;;;;6208785;23;20470;-75
2022/12/11 05:04:23;;;;;;;0.90;0.90;;;;;;;;;;6209404;22;20177;-75
2022/12/11 05:06:50;;;;;;;0.87;0.87;;;;;;;;;;6209766;23;20151;-75
2022/12/11 05:09:15;;;;;;;0.80;0.80;;;;;;;;;;6209284;23;20478;-73
2022/12/11 05:11:41;;;;;;;0.90;0.90;;;;;;;;;;6209668;23;20253;-75
2022/12/11 05:14:07;;;;;;;0.90;0.90;;;;;;;;;;6208118;22;20285;-75
2022/12/11 05:16:33;;;;;;;1.00;1.00;;;;;;;;;;6209240;23;20147;-76
2022/12/11 05:18:59;;;;;;;0.90;0.90;;;;;;;;;;6209442;23;20158;-75
2022/12/11 05:21:25;;;;;;;1.00;1.00;;;;;;;;;;6209589;23;20247;-75
2022/12/11 05:23:51;;;;;;;0.90;0.90;;;;;;;;;;6209350;22;20171;-75
2022/12/11 05:26:19;;;;;;;0.90;0.90;;;;;;;;;;6210295;23;20648;-75
2022/12/11 05:28:46;;;;;;;1.00;1.00;;;;;;;;;;6209860;23;20144;-76
2022/12/11 05:31:17;;;;;;;1.00;1.00;;;;;;;;;;6209547;23;20186;-75
2022/12/11 05:33:44;;;;;;;1.00;1.00;;;;;;;;;;6208670;22;20394;-75
2022/12/11 05:36:14;;;;;;;0.90;0.90;;;;;;;;;;6209328;23;20152;-75
2022/12/11 05:38:40;;;;;;;0.90;0.90;;;;;;;;;;6209595;23;20170;-74
2022/12/11 05:41:07;;;;;;;1.00;1.00;;;;;;;;;;6209337;23;20775;-76
2022/12/11 05:43:34;;;;;;;1.00;1.00;;;;;;;;;;6208237;22;20602;-75
2022/12/11 05:46:06;;;;;;;0.80;0.80;;;;;;;;;;6209277;23;20244;-75
2022/12/11 05:48:32;;;;;;;0.90;0.90;;;;;;;;;;6209242;23;20155;-75
2022/12/11 05:51:01;;;;;;;0.90;0.90;;;;;;;;;;6209061;23;20617;-75
2022/12/11 05:53:28;;;;;;;0.90;0.90;;;;;;;;;;6208429;22;20517;-75
2022/12/11 05:55:54;;;;;;;0.83;0.83;;;;;;;;;;6209174;23;20152;-75
2022/12/11 05:58:20;;;;;;;0.90;0.90;;;;;;;;;;6209153;23;20232;-75
2022/12/11 06:00:47;;;;;;;0.90;0.90;;;;;;;;;;6208850;23;20148;-75
2022/12/11 06:03:13;;;;;;;0.80;0.80;;;;;;;;;;6208004;22;20648;-75
2022/12/11 06:05:40;;;;;;;0.90;0.90;;;;;;;;;;6209157;23;20159;-75
2022/12/11 06:08:06;;;;;;;0.90;0.90;;;;;;;;;;6209097;23;20193;-76
2022/12/11 06:10:32;;;;;;;1.00;1.00;;;;;;;;;;6209014;23;20590;-75
2022/12/11 06:12:58;;;;;;;0.90;0.90;;;;;;;;;;6208035;22;20222;-75
2022/12/11 06:15:24;;;;;;;0.90;0.90;;;;;;;;;;6208637;23;20155;-75
2022/12/11 06:17:50;;;;;;;0.90;0.90;;;;;;;;;;6209060;23;20147;-75
2022/12/11 06:20:16;;;;;;;0.90;0.90;;;;;;;;;;6208992;23;20177;-76
2022/12/11 06:22:42;;;;;;;0.90;0.90;;;;;;;;;;6208286;22;20171;-75
2022/12/11 06:25:08;;;;;;;0.90;0.90;;;;;;;;;;6209606;23;20166;-75
2022/12/11 06:27:34;;;;;;;1.00;1.00;;;;;;;;;;6210012;23;20163;-76
2022/12/11 06:30:00;;;;;;;1.00;1.00;;;;;;;;;;6210374;23;20152;-75
2022/12/11 06:32:26;;;;;;;1.00;1.00;;;;;;;;;;6209333;22;20590;-75
2022/12/11 06:34:52;;;;;;;0.90;0.90;;;;;;;;;;6210525;23;20187;-75
2022/12/11 06:37:18;;;;;;;0.90;0.90;;;;;;;;;;6210097;23;20158;-76
2022/12/11 06:39:44;;;;;;;0.90;0.90;;;;;;;;;;6210009;23;20185;-75
2022/12/11 06:42:10;;;;;;;1.00;1.00;;;;;;;;;;6209988;23;20159;-75
2022/12/11 06:44:36;;;;;;;0.90;0.90;;;;;;;;;;6210248;22;20199;-75
2022/12/11 06:47:03;;;;;;;0.90;0.90;;;;;;;;;;6210292;23;20173;-75
2022/12/11 06:49:29;;;;;;;0.90;0.90;;;;;;;;;;6210017;23;20778;-75
2022/12/11 06:51:55;;;;;;;0.90;0.90;;;;;;;;;;6210248;23;20314;-75
2022/12/11 06:54:25;;;;;;;0.90;0.90;;;;;;;;;;6210268;22;20645;-76
2022/12/11 06:56:51;;;;;;;0.93;0.93;;;;;;;;;;6210119;23;20462;-76
2022/12/11 06:59:17;;;;;;;1.00;1.00;;;;;;;;;;6209775;23;20151;-76
2022/12/11 07:01:44;;;;;;;0.90;0.90;;;;;;;;;;6209396;23;20147;-75
2022/12/11 07:04:10;;;;;;;1.00;1.00;;;;;;;;;;6209298;22;20171;-75
2022/12/11 07:06:35;;;;;;;0.90;0.90;;;;;;;;;;6210238;23;20208;-75
2022/12/11 07:09:04;;;;;;;1.00;1.00;;;;;;;;;;6209511;23;20155;-75
2022/12/11 07:11:29;;;;;;;1.00;1.00;;;;;;;;;;6209723;23;20144;-76
2022/12/11 07:13:58;;;;;;;0.93;0.93;;;;;;;;;;6209025;22;20198;-77
2022/12/11 07:16:24;;;;;;;0.90;0.90;;;;;;;;;;6209655;23;20212;-75
2022/12/11 07:18:51;;;;;;;1.00;1.00;;;;;;;;;;6209751;23;20594;-75
2022/12/11 07:21:17;;;;;;;0.90;0.90;;;;;;;;;;6209733;23;20178;-75
2022/12/11 07:23:43;;;;;;;0.90;0.90;;;;;;;;;;6209080;22;20163;-75
2022/12/11 07:26:11;;;;;;;0.93;0.93;;;;;;;;;;6209077;23;20527;-74
2022/12/11 07:28:37;;;;;;;0.87;0.87;;;;;;;;;;6209619;23;20189;-75
2022/12/11 07:31:07;;;;;;;1.00;1.00;;;;;;;;;;6209594;23;20152;-75
2022/12/11 07:33:33;;;;;;;0.90;0.90;;;;;;;;;;6209041;22;20197;-75
2022/12/11 07:36:03;;;;;;;0.80;0.80;;;;;;;;;;6209278;23;20178;-75
2022/12/11 07:38:29;;;;;;;1.00;1.00;;;;;;;;;;6209819;23;20158;-74
2022/12/11 07:40:55;;;;;;;0.90;0.90;;;;;;;;;;6210928;23;20263;-79
2022/12/11 07:43:21;;;;;;;0.90;0.90;;;;;;;;;;6215080;22;20174;-78
2022/12/11 07:45:47;;;;;;;0.70;0.70;;;;;;;;;;6230607;23;20220;-78
2022/12/11 07:48:13;;;;;;;0.73;0.73;;;;;;;;;;6227339;23;20159;-78
2022/12/11 07:50:39;;;;;;;0.70;0.70;;;;;;;;;;6229311;23;20163;-77
2022/12/11 07:53:05;;;;;;;0.63;0.63;;;;;;;;;;6216292;22;20187;-74
2022/12/11 07:55:32;;;;;;;0.70;0.70;;;;;;;;;;6209547;23;20208;-75
2022/12/11 07:57:58;;;;;;;0.73;0.73;;;;;;;;;;6221568;23;20151;-75
2022/12/11 08:00:24;;;;;;;0.70;0.70;;;;;;;;;;6223776;23;20163;-75
2022/12/11 08:02:50;;;;;;;0.80;0.80;;;;;;;;;;6213268;22;20174;-76
2022/12/11 08:05:16;;;;;;;0.90;0.90;;;;;;;;;;6210171;23;20683;-75
2022/12/11 08:07:42;;;;;;;0.80;0.80;;;;;;;;;;6209914;23;20160;-76
2022/12/11 08:10:08;;;;;;;0.80;0.80;;;;;;;;;;6209114;23;20266;-76
2022/12/11 08:12:34;;;;;;;0.80;0.80;;;;;;;;;;6208566;22;20160;-77
2022/12/11 08:15:00;;;;;;;0.87;0.87;;;;;;;;;;6208888;23;20187;-76
2022/12/11 08:17:27;;;;;;;0.80;0.80;;;;;;;;;;6209652;23;20151;-74
2022/12/11 08:19:53;;;;;;;0.80;0.80;;;;;;;;;;6209341;23;20152;-76
2022/12/11 08:22:19;;;;;;;0.80;0.80;;;;;;;;;;6208834;22;20543;-76
2022/12/11 08:24:46;;;;;;;0.80;0.80;;;;;;;;;;6209147;23;20492;-76
2022/12/11 08:27:12;;;;;;;0.90;0.90;;;;;;;;;;6209117;23;20163;-76
2022/12/11 08:29:38;;;;;;;0.70;0.70;;;;;;;;;;6209123;23;20163;-77
2022/12/11 08:32:04;;;;;;;0.90;0.90;;;;;;;;;;6209007;23;20212;-75
2022/12/11 08:34:31;;;;;;;0.70;0.70;;;;;;;;;;6209077;22;20622;-75
2022/12/11 08:36:57;;;;;;;0.90;0.90;;;;;;;;;;6209785;23;20147;-75
2022/12/11 08:39:24;;;;;;;0.80;0.80;;;;;;;;;;6209774;23;20167;-76
2022/12/11 08:41:50;;;;;;;0.90;0.90;;;;;;;;;;6209716;23;20159;-76
2022/12/11 08:44:16;;;;;;;0.80;0.80;;;;;;;;;;6208969;22;20292;-76
2022/12/11 08:46:42;;;;;;;0.80;0.80;;;;;;;;;;6209452;23;20159;-75
2022/12/11 08:49:09;;;;;;;0.90;0.90;;;;;;;;;;6208861;23;20276;-75
2022/12/11 08:51:35;;;;;;;0.60;0.60;;;;;;;;;;6209257;23;20591;-74
2022/12/11 08:54:01;;;;;;;0.60;0.60;;;;;;;;;;6205560;22;20200;-74
2022/12/11 08:56:27;;;;;;;0.80;0.80;;;;;;;;;;6208742;23;20655;-75
2022/12/11 08:58:53;;;;;;;0.70;0.70;;;;;;;;;;6209290;23;20482;-75
2022/12/11 09:01:24;;;;;;;0.80;0.80;;;;;;;;;;6208799;23;20228;-76
2022/12/11 09:03:50;;;;;;;0.70;0.70;;;;;;;;;;6205870;22;20614;-75
2022/12/11 09:06:18;;;;;;;0.70;0.70;;;;;;;;;;6209010;23;20159;-75
2022/12/11 09:08:44;;;;;;;0.60;0.60;;;;;;;;;;6209287;23;20157;-75
2022/12/11 09:11:12;;;;;;;0.70;0.70;;;;;;;;;;6208845;23;20205;-76
2022/12/11 09:13:39;;;;;;;0.70;0.70;;;;;;;;;;6207780;22;20740;-75
2022/12/11 09:16:06;;;;;;;0.77;0.77;;;;;;;;;;6208704;23;20174;-76
2022/12/11 09:18:32;;;;;;;0.93;0.93;;;;;;;;;;6208911;23;20151;-76
2022/12/11 09:20:59;;;;;;;0.90;0.90;;;;;;;;;;6208620;23;20242;-75
2022/12/11 09:23:25;;;;;;;0.90;0.90;;;;;;;;;;6208200;22;20174;-75
2022/12/11 09:25:51;;;;;;;0.90;0.90;;;;;;;;;;6208203;23;20159;-75
2022/12/11 09:28:17;;;;;;;0.90;0.90;;;;;;;;;;6208154;23;20167;-75
2022/12/11 09:30:43;;;;;;;0.90;0.90;;;;;;;;;;6208811;23;20155;-76
2022/12/11 09:33:09;;;;;;;0.90;0.90;;;;;;;;;;6208310;22;20205;-76
2022/12/11 09:35:36;;;;;;;0.90;0.90;;;;;;;;;;6205633;23;20276;-74
2022/12/11 09:38:02;;;;;;;0.90;0.90;;;;;;;;;;6208216;23;20152;-74
2022/12/11 09:40:28;;;;;;;0.90;0.90;;;;;;;;;;6207647;23;20164;-75
2022/12/11 09:43:00;;;;;;;0.90;0.90;;;;;;;;;;6207118;22;20626;-75
2022/12/11 09:45:26;;;;;;;0.77;0.77;;;;;;;;;;6208526;23;20152;-74
2022/12/11 09:47:54;;;;;;;0.90;0.90;;;;;;;;;;6208154;23;20153;-75
2022/12/11 09:50:23;;;;;;;0.90;0.90;;;;;;;;;;6208458;23;20174;-74
2022/12/11 09:52:52;;;;;;;1.00;1.00;;;;;;;;;;6207253;22;20489;-74
2022/12/11 09:55:20;;;;;;;0.90;0.90;;;;;;;;;;6208164;23;20167;-75
2022/12/11 09:58:04;;;;;;;0.90;0.90;;;;;;;;;;6208391;23;20583;-75
2022/12/11 10:00:41;;;;;;;0.90;0.90;;;;;;;;;;6209267;23;20155;-74
2022/12/11 10:03:31;;;;;;;0.70;0.70;;;;;;;;;;6207356;22;20366;-75
2022/12/11 10:06:03;;;;;;;0.90;0.90;;;;;;;;;;6210197;23;20448;-74
2022/12/11 10:08:29;;;;;;;0.90;0.90;;;;;;;;;;6209907;23;20162;-73
2022/12/11 10:10:55;;;;;;;1.00;1.00;;;;;;;;;;6209414;23;20148;-75
2022/12/11 10:13:30;;;;;;;0.80;0.80;;;;;;;;;;6209158;22;20187;-74
2022/12/11 10:16:12;;;;;;;0.90;0.90;;;;;;;;;;6210049;23;20165;-74
2022/12/11 10:18:38;;;;;;;0.90;0.90;;;;;;;;;;6210074;23;20156;-76
2022/12/11 10:21:04;;;;;;;0.80;0.80;;;;;;;;;;6210962;23;20156;-74
2022/12/11 10:23:34;;;;;;;0.90;0.90;;;;;;;;;;6221797;22;20159;-74
2022/12/11 10:26:06;;;;;;;1.00;1.00;;;;;;;;;;6237905;22;20158;-75
2022/12/11 10:28:32;;;;;;;0.93;0.93;;;;;;;;;;6238397;22;20140;-73
2022/12/11 10:30:58;;;;;;;1.00;1.00;;;;;;;;;;6238380;22;20170;-74
2022/12/11 10:33:44;;;;;;;0.90;0.90;;;;;;;;;;6237676;22;20202;-74
2022/12/11 10:36:14;;;;;;;0.90;0.90;;;;;;;;;;6238389;22;20199;-73
2022/12/11 10:38:42;;;;;;;1.00;1.00;;;;;;;;;;6238599;22;20159;-72
2022/12/11 10:41:12;;;;;;;0.90;0.90;;;;;;;;;;6238035;22;20151;-73
2022/12/11 10:43:40;;;;;;;0.90;0.90;;;;;;;;;;6237804;22;20209;-74
2022/12/11 10:46:07;;;;;;;0.83;0.83;;;;;;;;;;6238842;22;20144;-73
2022/12/11 10:48:33;;;;;;;1.00;1.00;;;;;;;;;;6238704;22;20199;-73
2022/12/11 10:51:04;;;;;;;0.90;0.90;;;;;;;;;;6238907;22;20151;-74
2022/12/11 10:53:31;;;;;;;0.90;0.90;;;;;;;;;;6238239;22;20183;-73
2022/12/11 10:55:57;;;;;;;0.83;0.83;;;;;;;;;;6238900;22;20159;-73
2022/12/11 10:58:25;;;;;;;0.90;0.90;;;;;;;;;;6238637;22;20143;-73
2022/12/11 11:01:13;;;;;;;0.90;0.90;;;;;;;;;;6235474;22;20179;-75
2022/12/11 11:03:51;;;;;;;0.80;0.80;;;;;;;;;;6237244;22;20158;-75
2022/12/11 11:06:19;;;;;;;0.90;0.90;;;;;;;;;;6237745;22;20151;-75
2022/12/11 11:08:46;;;;;;;0.80;0.80;;;;;;;;;;6238906;22;20148;-76
2022/12/11 11:11:27;;;;;;;1.00;1.00;;;;;;;;;;6237014;22;20131;-75
2022/12/11 11:14:04;;;;;;;0.90;0.90;;;;;;;;;;6234790;22;20202;-76
2022/12/11 11:16:30;;;;;;;0.90;0.90;;;;;;;;;;6236420;22;20212;-76
2022/12/11 11:18:58;;;;;;;0.90;0.90;;;;;;;;;;6236938;22;20152;-75
2022/12/11 11:21:25;;;;;;;0.90;0.90;;;;;;;;;;6235663;22;20217;-77
2022/12/11 11:23:52;;;;;;;1.07;1.07;;;;;;;;;;6235669;22;20179;-77
2022/12/11 11:26:19;;;;;;;1.00;1.00;;;;;;;;;;6237016;22;20244;-75
2022/12/11 11:29:03;;;;;;;1.00;1.00;;;;;;;;;;6232516;23;20551;-74
2022/12/11 11:31:33;;;;;;;0.83;0.83;;;;;;;;;;6232711;23;20144;-76
2022/12/11 11:34:06;;;;;;;0.90;0.90;;;;;;;;;;6228864;22;20267;-74
2022/12/11 11:36:33;;;;;;;0.90;0.90;;;;;;;;;;6223790;23;20159;-76
2022/12/11 11:38:59;;;;;;;1.00;1.00;;;;;;;;;;6212636;23;20617;-74
2022/12/11 11:41:31;;;;;;;0.90;0.90;;;;;;;;;;6210297;23;20155;-74
2022/12/11 11:43:58;;;;;;;0.90;0.90;;;;;;;;;;6210146;22;20179;-75
2022/12/11 11:46:28;;;;;;;1.00;1.00;;;;;;;;;;6210771;23;20348;-74
2022/12/11 11:49:10;;;;;;;1.00;1.00;;;;;;;;;;6210085;23;20159;-74
2022/12/11 11:51:41;;;;;;;0.90;0.90;;;;;;;;;;6209516;23;20155;-74
2022/12/11 11:54:19;;;;;;;0.90;0.90;;;;;;;;;;6208152;22;20199;-74
2022/12/11 11:56:45;;;;;;;0.90;0.90;;;;;;;;;;6208406;23;20207;-74
2022/12/11 11:59:11;;;;;;;0.90;0.90;;;;;;;;;;6208192;23;20205;-74
2022/12/11 12:01:37;;;;;;;0.90;0.90;;;;;;;;;;6208183;23;20557;-74
2022/12/11 12:04:04;;;;;;;0.90;0.90;;;;;;;;;;6207680;22;20167;-74
2022/12/11 12:06:49;;;;;;;0.90;0.90;;;;;;;;;;6208631;23;20204;-74
2022/12/11 12:09:33;;;;;;;0.90;0.90;;;;;;;;;;6207693;23;20178;-74
2022/12/11 12:12:28;;;;;;;0.80;0.80;;;;;;;;;;6208461;23;20159;-74
2022/12/11 12:14:59;;;;;;;1.00;1.00;;;;;;;;;;6208512;23;20275;-74
2022/12/11 12:17:43;;;;;;;0.97;0.97;;;;;;;;;;6208407;23;20476;-73
2022/12/11 12:20:17;;;;;;;0.93;0.93;;;;;;;;;;6209071;23;20461;-73
2022/12/11 12:22:52;;;;;;;0.90;0.90;;;;;;;;;;6207721;22;20231;-73
2022/12/11 12:25:21;;;;;;;0.90;0.90;;;;;;;;;;6208548;23;20230;-73
2022/12/11 12:28:05;;;;;;;1.00;1.00;;;;;;;;;;6208452;23;20163;-74
2022/12/11 12:30:37;;;;;;;0.90;0.90;;;;;;;;;;6208847;23;20144;-74
2022/12/11 12:33:15;;;;;;;0.90;0.90;;;;;;;;;;6207927;22;20206;-74
2022/12/11 12:35:55;;;;;;;1.00;1.00;;;;;;;;;;6207998;23;20171;-73
2022/12/11 12:38:22;;;;;;;1.00;1.00;;;;;;;;;;6213269;23;20151;-74
2022/12/11 12:40:48;;;;;;;0.97;0.97;;;;;;;;;;6216619;23;20159;-75
2022/12/11 12:43:30;;;;;;;0.80;0.80;;;;;;;;;;6212180;22;20548;-73
2022/12/11 12:46:05;;;;;;;0.90;0.90;;;;;;;;;;6209694;23;20602;-74
2022/12/11 12:48:32;;;;;;;0.90;0.90;;;;;;;;;;6209944;23;20158;-74
2022/12/11 12:50:59;;;;;;;1.00;1.00;;;;;;;;;;6209827;23;20666;-74
2022/12/11 12:53:28;;;;;;;0.80;0.80;;;;;;;;;;6208247;22;20235;-74
2022/12/11 12:55:54;;;;;;;0.60;0.60;;;;;;;;;;6208061;23;20849;-73
2022/12/11 12:58:35;;;;;;;0.60;0.60;;;;;;;;;;6208845;23;20370;-74
2022/12/11 13:01:21;;;;;;;0.80;0.80;;;;;;;;;;6208685;23;20628;-75
2022/12/11 13:03:56;;;;;;;0.80;0.80;;;;;;;;;;6208223;22;20198;-75
2022/12/11 13:06:41;;;;;;;0.90;0.90;;;;;;;;;;6208388;23;20151;-74
2022/12/11 13:09:10;;;;;;;1.00;1.00;;;;;;;;;;6208225;23;20234;-74
2022/12/11 13:11:36;;;;;;;0.90;0.90;;;;;;;;;;6207931;23;20178;-74
2022/12/11 13:14:04;;;;;;;0.90;0.90;;;;;;;;;;6207847;22;20501;-74
2022/12/11 13:16:38;;;;;;;0.80;0.80;;;;;;;;;;6208554;23;20163;-74
2022/12/11 13:19:15;;;;;;;0.90;0.90;;;;;;;;;;6208788;23;20162;-74
2022/12/11 13:21:41;;;;;;;1.00;1.00;;;;;;;;;;6208078;23;20143;-75
2022/12/11 13:24:27;;;;;;;0.80;0.80;;;;;;;;;;6207663;22;20618;-74
2022/12/11 13:26:53;;;;;;;0.80;0.80;;;;;;;;;;6208441;23;20163;-75
2022/12/11 13:29:31;;;;;;;0.90;0.90;;;;;;;;;;6208466;23;20151;-74
2022/12/11 13:32:02;;;;;;;0.87;0.87;;;;;;;;;;6207739;23;20158;-75
2022/12/11 13:34:31;;;;;;;0.90;0.90;;;;;;;;;;6208492;22;20195;-75
2022/12/11 13:36:57;;;;;;;1.00;1.00;;;;;;;;;;6209994;23;20263;-74
2022/12/11 13:39:26;;;;;;;1.00;1.00;;;;;;;;;;6209161;23;20155;-74
2022/12/11 13:41:53;;;;;;;1.00;1.00;;;;;;;;;;6209596;23;20159;-74
2022/12/11 13:44:27;;;;;;;0.80;0.80;;;;;;;;;;6208625;22;20262;-74
2022/12/11 13:46:55;;;;;;;1.00;1.00;;;;;;;;;;6209708;23;20151;-75
2022/12/11 13:49:23;;;;;;;0.90;0.90;;;;;;;;;;6209751;23;20207;-75
2022/12/11 13:51:53;;;;;;;0.90;0.90;;;;;;;;;;6209623;23;20169;-74
2022/12/11 13:54:19;;;;;;;0.80;0.80;;;;;;;;;;6208752;22;20622;-74
2022/12/11 13:56:59;;;;;;;0.80;0.80;;;;;;;;;;6209883;23;20143;-76
2022/12/11 13:59:30;;;;;;;0.70;0.70;;;;;;;;;;6209054;23;20334;-76
2022/12/11 14:01:58;;;;;;;0.77;0.77;;;;;;;;;;6209401;23;20231;-76
2022/12/11 14:04:26;;;;;;;0.80;0.80;;;;;;;;;;6209318;22;20168;-76
2022/12/11 14:06:53;;;;;;;0.80;0.80;;;;;;;;;;6209752;23;20155;-77
2022/12/11 14:09:21;;;;;;;0.80;0.80;;;;;;;;;;6209210;23;20258;-76
2022/12/11 14:11:47;;;;;;;0.80;0.80;;;;;;;;;;6208681;23;20147;-76
2022/12/11 14:14:21;;;;;;;0.80;0.80;;;;;;;;;;6208910;22;20191;-75
2022/12/11 14:16:48;;;;;;;0.80;0.80;;;;;;;;;;6209476;23;20156;-75
2022/12/11 14:19:16;;;;;;;0.70;0.70;;;;;;;;;;6209507;23;20159;-76
2022/12/11 14:21:43;;;;;;;0.90;0.90;;;;;;;;;;6209129;23;20159;-76
2022/12/11 14:24:13;;;;;;;0.80;0.80;;;;;;;;;;6207071;22;20175;-76
2022/12/11 14:26:39;;;;;;;0.80;0.80;;;;;;;;;;6208889;23;20500;-76
2022/12/11 14:29:06;;;;;;;0.70;0.70;;;;;;;;;;6206759;23;20159;-76
2022/12/11 14:31:42;;;;;;;0.90;0.90;;;;;;;;;;6207546;23;20222;-76
2022/12/11 14:34:20;;;;;;;1.00;1.00;;;;;;;;;;6207973;22;20182;-76
2022/12/11 14:36:47;;;;;;;0.93;0.93;;;;;;;;;;6209379;23;20158;-76
2022/12/11 14:39:16;;;;;;;0.90;0.90;;;;;;;;;;6208959;23;20625;-76
2022/12/11 14:41:52;;;;;;;0.83;0.83;;;;;;;;;;6208950;23;20208;-76
2022/12/11 14:44:20;;;;;;;0.87;0.87;;;;;;;;;;6208671;22;20186;-76
2022/12/11 14:46:52;;;;;;;0.90;0.90;;;;;;;;;;6208884;23;20641;-76
2022/12/11 14:49:18;;;;;;;0.93;0.93;;;;;;;;;;6206633;23;20174;-75
2022/12/11 14:51:44;;;;;;;0.90;0.90;;;;;;;;;;6208034;23;20996;-75
2022/12/11 14:54:17;;;;;;;0.90;0.90;;;;;;;;;;6208370;22;20215;-75
2022/12/11 14:56:43;;;;;;;1.00;1.00;;;;;;;;;;6208743;23;20163;-75
2022/12/11 14:59:18;;;;;;;1.00;1.00;;;;;;;;;;6208825;23;20606;-75
2022/12/11 15:01:44;;;;;;;0.90;0.90;;;;;;;;;;6208993;23;20139;-74